Terminal Aerodrome Forecast
Issued by NWS Sterling, VA

Current Version | Previous Version | Text Only | Print | Product List | Glossary Off
Versions: 1 2 3 4 5 6 7 8 9 10 11 12 13 14 15 16 17 18 19

166
FTUS41 KLWX 251733
TAFIAD
TAF
KIAD 251733Z 2518/2624 05012G22KT 2SM -RA OVC008
     FM252100 04010KT 5SM BR OVC008
     FM260400 36007KT 3SM BR OVC008
     FM261200 34006KT P6SM OVC025
     FM262000 VRB03KT P6SM SCT025=

USA.gov is the U.S. government's official web portal to all federal, state and local government web resources and services.